Somerville, Ohio
Current Conditions -  °F | °C
As of 11:15 AM on Sunday 25 Jan 2015 (Local Time) from KMWO Reporting Station
Light Snow Light Snow  
Wind Chill: 39°   Ceiling: 3300
Heat Index: 39°   Visibility: 4mi
Dew Point: 34°   Wind: 3mph
Humidity: 81%   Direction: 80°E
Pressure: 29.76"   Gusts: NA
Location:  39.56°N, 84.64°W
Report Text: KMWO 251615Z AUTO 08003KT 4SM -SN OVC033 04/01 A2976 RMK AO2 T00400010
Loading
Personal Weather Stations






























Interactive Weather Map New forecast layout! Learn more

10-Day Weather Forecast

Advertisements
Track Severe Weather on mobile